Hazel, South Dakota
Current Conditions -  °F | °C
As of 2:43 AM on Saturday 20 Dec 2014 (Local Time) from KATY Reporting Station
Haze Haze  
Wind Chill: 17°   Ceiling: 300
Heat Index: 28°   Visibility: 2.5mi
Dew Point: 27°   Wind: 13mph
Humidity: 96%   Direction: 190°S
Pressure: 30.01"   Gusts: NA
Location:  44.76°N, 97.38°W
Report Text: KATY 200843Z AUTO 19011KT 2 1/2SM BR OVC003 M02/M03 A3001 RMK AO2 T10221028
Loading
Personal Weather Stations






























Interactive Weather Map New forecast layout! Learn more

10-Day Weather Forecast

Advertisements
Track Severe Weather on mobile